createdAt,value
2018-09-09T00:01:14.521Z,56.10
2018-09-09T00:03:42.877Z,56.10
2018-09-09T00:06:11.215Z,56.00
2018-09-09T00:08:39.547Z,55.80
2018-09-09T00:11:08.639Z,55.80
2018-09-09T00:13:36.993Z,56.00
2018-09-09T00:16:06.049Z,55.70
2018-09-09T00:18:34.421Z,55.50
2018-09-09T00:21:03.475Z,55.50
2018-09-09T00:23:31.799Z,55.50
2018-09-09T00:26:00.159Z,55.40
2018-09-09T00:28:28.727Z,55.50
2018-09-09T00:30:57.239Z,55.70
2018-09-09T00:33:25.604Z,56.10
2018-09-09T00:35:54.859Z,56.00
2018-09-09T00:38:23.207Z,56.10
2018-09-09T00:40:51.541Z,56.30
2018-09-09T00:43:19.887Z,56.50
2018-09-09T00:45:48.213Z,56.80
2018-09-09T00:48:16.591Z,57.10
2018-09-09T00:50:50.194Z,57.20
2018-09-09T00:53:23.875Z,57.10
2018-09-09T00:55:52.191Z,57.00
2018-09-09T00:58:20.529Z,56.80
2018-09-09T01:00:54.253Z,56.80
2018-09-09T01:03:22.559Z,56.80
2018-09-09T01:05:50.911Z,56.70
2018-09-09T01:08:19.399Z,56.80
2018-09-09T01:10:47.769Z,56.80
2018-09-09T01:13:17.023Z,57.00
2018-09-09T01:15:45.401Z,57.10
2018-09-09T01:18:13.770Z,57.10
2018-09-09T01:20:42.097Z,57.10
2018-09-09T01:23:10.511Z,57.10
2018-09-09T01:25:38.880Z,57.10
2018-09-09T01:28:07.307Z,57.10
2018-09-09T01:30:35.671Z,57.30
2018-09-09T01:33:04.577Z,58.00
2018-09-09T01:35:32.908Z,58.40
2018-09-09T01:38:01.371Z,58.50
2018-09-09T01:40:31.175Z,58.50
2018-09-09T01:42:59.541Z,58.40
2018-09-09T01:45:27.968Z,58.10
2018-09-09T01:47:56.318Z,57.90
2018-09-09T01:50:25.348Z,57.80
2018-09-09T01:52:53.816Z,58.00
2018-09-09T01:55:22.236Z,58.30
2018-09-09T01:57:50.552Z,58.30
2018-09-09T02:00:18.971Z,58.20
2018-09-09T02:02:47.822Z,58.00
2018-09-09T02:05:16.210Z,58.00
2018-09-09T02:07:44.564Z,58.00
2018-09-09T02:10:12.910Z,58.00
2018-09-09T02:12:41.279Z,58.00
2018-09-09T02:15:09.613Z,57.90
2018-09-09T02:17:37.966Z,57.90
2018-09-09T02:20:06.346Z,58.30
2018-09-09T02:22:34.736Z,58.70
2018-09-09T02:25:03.178Z,58.80
2018-09-09T02:27:31.515Z,58.90
2018-09-09T02:30:00.042Z,58.90
2018-09-09T02:32:28.391Z,58.60
2018-09-09T02:34:56.765Z,58.60
2018-09-09T02:37:25.114Z,58.70
2018-09-09T02:39:53.626Z,58.80
2018-09-09T02:42:21.952Z,58.80
2018-09-09T02:44:50.322Z,58.70
2018-09-09T02:47:18.696Z,58.60
2018-09-09T02:49:47.010Z,58.70
2018-09-09T02:52:15.358Z,59.10
2018-09-09T02:54:43.802Z,59.10
2018-09-09T02:57:12.163Z,59.00
2018-09-09T02:59:40.494Z,59.00
2018-09-09T03:02:08.846Z,59.00
2018-09-09T03:04:37.181Z,59.20
2018-09-09T03:07:05.653Z,59.30
2018-09-09T03:09:34.009Z,59.30
2018-09-09T03:12:02.339Z,59.20
2018-09-09T03:14:30.788Z,59.30
2018-09-09T03:16:59.170Z,59.40
2018-09-09T03:19:27.483Z,59.10
2018-09-09T03:21:55.833Z,59.20
2018-09-09T03:24:24.259Z,59.10
2018-09-09T03:26:52.650Z,59.00
2018-09-09T03:29:21.028Z,58.90
2018-09-09T03:31:49.394Z,58.80
2018-09-09T03:34:17.845Z,58.60
2018-09-09T03:36:46.227Z,58.60
2018-09-09T03:39:14.581Z,58.60
2018-09-09T03:41:42.896Z,58.70
2018-09-09T03:44:11.820Z,58.70
2018-09-09T03:46:40.172Z,58.90
2018-09-09T03:49:08.509Z,59.00
2018-09-09T03:51:37.739Z,58.90
2018-09-09T03:54:06.107Z,58.90
2018-09-09T03:56:34.471Z,58.70
2018-09-09T03:59:03.575Z,62.50
2018-09-09T04:01:31.917Z,63.10
2018-09-09T04:04:00.253Z,63.10
2018-09-09T04:06:28.600Z,63.10
2018-09-09T04:08:57.007Z,62.20
2018-09-09T04:11:25.351Z,61.40
2018-09-09T04:13:54.149Z,61.00
2018-09-09T04:16:22.500Z,61.00
2018-09-09T04:18:50.882Z,61.60
2018-09-09T04:21:19.283Z,61.90
2018-09-09T04:23:47.689Z,61.60
2018-09-09T04:26:16.049Z,61.20
2018-09-09T04:28:44.381Z,60.90
2018-09-09T04:31:12.707Z,60.60
2018-09-09T04:33:41.057Z,60.50
2018-09-09T04:36:09.397Z,60.50
2018-09-09T04:38:37.969Z,60.30
2018-09-09T04:41:06.340Z,60.30
2018-09-09T04:43:34.688Z,61.00
2018-09-09T04:46:03.015Z,60.30
2018-09-09T04:48:31.355Z,60.10
2018-09-09T04:50:59.701Z,60.20
2018-09-09T04:53:28.045Z,60.10
2018-09-09T04:55:56.389Z,60.00
2018-09-09T04:58:24.765Z,60.00
2018-09-09T05:00:53.137Z,60.50
2018-09-09T05:03:21.463Z,61.30
2018-09-09T05:05:49.825Z,61.30
2018-09-09T05:08:18.163Z,61.50
2018-09-09T05:10:46.745Z,61.70
2018-09-09T05:13:15.153Z,61.70
2018-09-09T05:15:43.490Z,61.60
2018-09-09T05:18:11.859Z,61.30
2018-09-09T05:20:40.333Z,61.10
2018-09-09T05:23:08.648Z,60.80
2018-09-09T05:25:37.000Z,60.70
2018-09-09T05:28:05.395Z,60.40
2018-09-09T05:30:33.729Z,60.30
2018-09-09T05:33:02.086Z,60.50
2018-09-09T05:35:30.435Z,60.60
2018-09-09T05:37:58.899Z,60.80
2018-09-09T05:40:27.246Z,60.80
2018-09-09T05:42:55.556Z,61.00
2018-09-09T05:45:23.936Z,62.00
2018-09-09T05:47:52.264Z,62.10
2018-09-09T05:50:20.648Z,62.00
2018-09-09T05:52:48.977Z,61.90
2018-09-09T05:55:18.279Z,61.90
2018-09-09T05:57:46.767Z,61.30
2018-09-09T06:00:15.041Z,61.30
2018-09-09T06:02:43.402Z,61.20
2018-09-09T06:05:18.126Z,61.00
2018-09-09T06:07:46.523Z,61.00
2018-09-09T06:10:14.856Z,61.00
2018-09-09T06:12:43.255Z,60.90
2018-09-09T06:15:11.573Z,61.20
2018-09-09T06:17:39.901Z,61.40
2018-09-09T06:20:09.035Z,61.80
2018-09-09T06:22:37.367Z,61.90
2018-09-09T06:25:05.878Z,62.20
2018-09-09T06:27:34.242Z,62.50
2018-09-09T06:30:02.642Z,62.40
2018-09-09T06:32:31.053Z,61.10
2018-09-09T06:34:59.449Z,61.20
2018-09-09T06:37:27.784Z,61.40
2018-09-09T06:39:56.105Z,62.10
2018-09-09T06:42:24.467Z,62.40
2018-09-09T06:44:52.802Z,62.10
2018-09-09T06:47:21.157Z,62.30
2018-09-09T06:49:49.644Z,62.20
2018-09-09T06:52:17.990Z,62.10
2018-09-09T06:54:46.364Z,62.00
2018-09-09T06:57:14.742Z,62.80
2018-09-09T06:59:43.685Z,62.90
2018-09-09T07:02:12.051Z,63.00
2018-09-09T07:04:40.379Z,63.10
2018-09-09T07:07:08.732Z,63.20
2018-09-09T07:09:37.118Z,63.40
2018-09-09T07:12:05.492Z,63.40
2018-09-09T07:14:33.827Z,62.90
2018-09-09T07:17:02.339Z,62.70
2018-09-09T07:19:30.671Z,62.90
2018-09-09T07:21:59.098Z,62.40
2018-09-09T07:24:27.436Z,62.40
2018-09-09T07:26:55.892Z,62.20
2018-09-09T07:29:24.601Z,62.30
2018-09-09T07:31:52.995Z,62.30
2018-09-09T07:34:21.423Z,62.10
2018-09-09T07:36:49.831Z,62.50
2018-09-09T07:39:18.171Z,61.80
2018-09-09T07:41:46.517Z,61.80
2018-09-09T07:44:14.859Z,61.00
2018-09-09T07:46:43.229Z,61.50
2018-09-09T07:49:11.593Z,60.20
2018-09-09T07:51:39.914Z,60.50
2018-09-09T07:54:08.244Z,59.20
2018-09-09T07:56:36.601Z,59.20
2018-09-09T07:59:05.017Z,58.90
2018-09-09T08:01:33.894Z,57.70
2018-09-09T08:04:02.232Z,57.20
2018-09-09T08:06:30.576Z,57.50
2018-09-09T08:08:58.947Z,56.60
2018-09-09T08:11:32.564Z,55.10
2018-09-09T08:14:01.025Z,53.60
2018-09-09T08:16:29.324Z,53.00
2018-09-09T08:18:57.683Z,53.70
2018-09-09T08:21:26.040Z,53.80
2018-09-09T08:23:54.425Z,51.90
2018-09-09T08:26:23.028Z,52.20
2018-09-09T08:28:51.425Z,52.10
2018-09-09T08:31:20.098Z,52.00
2018-09-09T08:33:48.774Z,51.50
2018-09-09T08:36:17.116Z,51.50
2018-09-09T08:38:45.463Z,51.40
2018-09-09T08:41:13.944Z,52.60
2018-09-09T08:43:43.018Z,50.40
2018-09-09T08:46:11.358Z,48.30
2018-09-09T08:48:39.722Z,48.50
2018-09-09T08:51:08.134Z,48.00
2018-09-09T08:53:36.483Z,47.30
2018-09-09T08:56:04.874Z,46.20
2018-09-09T08:58:33.888Z,46.40
2018-09-09T09:01:02.318Z,45.90
2018-09-09T09:03:30.788Z,45.00
2018-09-09T09:05:59.166Z,45.30
2018-09-09T09:08:27.561Z,46.00
2018-09-09T09:10:55.898Z,44.50
2018-09-09T09:13:24.252Z,43.60
2018-09-09T09:15:52.601Z,43.80
2018-09-09T09:18:21.049Z,44.40
2018-09-09T09:20:49.447Z,43.90
2018-09-09T09:23:17.759Z,42.40
2018-09-09T09:25:51.664Z,41.40
2018-09-09T09:28:20.894Z,41.80
2018-09-09T09:30:50.255Z,40.70
2018-09-09T09:33:18.611Z,40.20
2018-09-09T09:35:52.181Z,40.30
2018-09-09T09:38:21.998Z,40.40
2018-09-09T09:40:50.902Z,39.20
2018-09-09T09:43:19.286Z,38.60
2018-09-09T09:45:47.703Z,37.60
2018-09-09T09:48:16.091Z,36.00
2018-09-09T09:50:44.512Z,36.10
2018-09-09T09:53:13.649Z,34.20
2018-09-09T09:55:41.964Z,32.90
2018-09-09T09:58:10.393Z,32.70
2018-09-09T10:00:44.260Z,31.70
2018-09-09T10:03:12.638Z,31.60
2018-09-09T10:05:40.988Z,28.80
2018-09-09T10:08:09.332Z,29.80
2018-09-09T10:10:37.672Z,30.20
2018-09-09T10:13:06.037Z,29.70
2018-09-09T10:15:34.416Z,29.90
2018-09-09T10:18:02.780Z,29.40
2018-09-09T10:20:31.116Z,28.40
2018-09-09T10:22:59.469Z,28.70
2018-09-09T10:25:27.778Z,28.70
2018-09-09T10:27:56.259Z,28.70
2018-09-09T10:30:24.609Z,28.60
2018-09-09T10:32:52.940Z,28.60
2018-09-09T10:35:21.282Z,28.40
2018-09-09T10:37:49.673Z,27.90
2018-09-09T10:40:18.115Z,28.00
2018-09-09T10:42:46.513Z,27.40
2018-09-09T10:45:14.880Z,26.80
2018-09-09T10:47:43.319Z,26.70
2018-09-09T10:50:11.697Z,26.40
2018-09-09T10:52:40.041Z,26.00
2018-09-09T10:55:08.412Z,26.00
2018-09-09T10:57:36.747Z,26.70
2018-09-09T11:00:05.471Z,25.20
2018-09-09T11:02:34.393Z,26.20
2018-09-09T11:05:02.744Z,26.30
2018-09-09T11:07:31.136Z,26.10
2018-09-09T11:09:59.467Z,24.80
2018-09-09T11:12:29.019Z,25.80
2018-09-09T11:14:58.369Z,26.20
2018-09-09T11:17:27.011Z,26.70
2018-09-09T11:19:55.646Z,25.80
2018-09-09T11:22:23.965Z,25.90
2018-09-09T11:24:52.332Z,25.20
2018-09-09T11:27:20.717Z,24.70
2018-09-09T11:29:49.138Z,23.80
2018-09-09T11:32:17.470Z,24.00
2018-09-09T11:34:45.836Z,24.10
2018-09-09T11:37:14.878Z,23.10
2018-09-09T11:39:43.272Z,23.00
2018-09-09T11:42:11.764Z,23.20
2018-09-09T11:44:40.123Z,22.00
2018-09-09T11:47:08.623Z,22.50
2018-09-09T11:49:37.548Z,22.00
2018-09-09T11:52:05.944Z,22.20
2018-09-09T11:54:34.302Z,21.70
2018-09-09T11:57:02.771Z,21.20
2018-09-09T11:59:31.179Z,22.50
2018-09-09T12:02:00.141Z,21.40
2018-09-09T12:04:28.435Z,21.80
2018-09-09T12:06:56.888Z,21.40
2018-09-09T12:09:25.325Z,21.60
2018-09-09T12:11:53.698Z,21.40
2018-09-09T12:14:22.681Z,22.20
2018-09-09T12:16:51.022Z,21.60
2018-09-09T12:19:19.376Z,20.80
2018-09-09T12:21:47.685Z,20.60
2018-09-09T12:24:16.144Z,20.00
2018-09-09T12:26:45.166Z,21.00
2018-09-09T12:29:13.559Z,19.80
2018-09-09T12:31:41.924Z,19.80
2018-09-09T12:34:11.028Z,20.20
2018-09-09T12:36:39.374Z,20.10
2018-09-09T12:39:08.267Z,18.90
2018-09-09T12:41:36.712Z,20.10
2018-09-09T12:44:10.353Z,19.10
2018-09-09T12:46:44.082Z,19.00
2018-09-09T12:49:12.453Z,19.40
2018-09-09T12:51:40.885Z,19.80
2018-09-09T12:54:09.248Z,18.80
2018-09-09T12:56:38.179Z,18.90
2018-09-09T12:59:06.676Z,18.70
2018-09-09T13:01:35.124Z,18.00
2018-09-09T13:04:03.462Z,18.70
2018-09-09T13:06:31.905Z,18.90
2018-09-09T13:09:00.275Z,19.00
2018-09-09T13:11:28.692Z,18.40
2018-09-09T13:13:57.066Z,18.10
2018-09-09T13:16:25.754Z,17.30
2018-09-09T13:18:54.131Z,18.10
2018-09-09T13:21:22.470Z,18.60
2018-09-09T13:23:50.854Z,18.20
2018-09-09T13:26:19.334Z,18.50
2018-09-09T13:28:47.578Z,18.30
2018-09-09T13:31:15.932Z,17.70
2018-09-09T13:33:44.314Z,17.40
2018-09-09T13:36:12.666Z,17.50
2018-09-09T13:38:41.134Z,18.80
2018-09-09T13:41:09.502Z,17.90
2018-09-09T13:43:38.625Z,17.60
2018-09-09T13:46:07.024Z,17.70
2018-09-09T13:48:35.454Z,17.70
2018-09-09T13:51:03.828Z,17.50
2018-09-09T13:53:32.225Z,17.80
2018-09-09T13:56:00.593Z,17.50
2018-09-09T13:58:29.017Z,17.50
2018-09-09T14:00:57.408Z,18.20
2018-09-09T14:03:25.884Z,17.40
2018-09-09T14:05:54.244Z,18.10
2018-09-09T14:08:22.609Z,17.30
2018-09-09T14:10:50.952Z,18.40
2018-09-09T14:13:19.336Z,18.10
2018-09-09T14:15:47.788Z,17.50
2018-09-09T14:18:16.136Z,18.30
2018-09-09T14:20:44.720Z,17.50
2018-09-09T14:23:13.062Z,17.60
2018-09-09T14:25:41.428Z,17.50
2018-09-09T14:28:09.788Z,17.70
2018-09-09T14:30:38.087Z,17.70
2018-09-09T14:33:06.478Z,18.00
2018-09-09T14:35:34.810Z,18.10
2018-09-09T14:38:03.285Z,18.10
2018-09-09T14:40:31.720Z,18.20
2018-09-09T14:43:00.066Z,17.60
2018-09-09T14:45:28.430Z,17.40
2018-09-09T14:47:57.372Z,17.60
2018-09-09T14:50:26.086Z,18.00
2018-09-09T14:52:54.933Z,18.30
2018-09-09T14:55:23.254Z,17.90
2018-09-09T14:57:51.609Z,18.60
2018-09-09T15:00:20.004Z,19.20
2018-09-09T15:02:48.370Z,19.20
2018-09-09T15:05:16.872Z,18.70
2018-09-09T15:07:45.234Z,19.00
2018-09-09T15:10:14.324Z,18.20
2018-09-09T15:12:42.703Z,19.00
2018-09-09T15:15:11.125Z,17.90
2018-09-09T15:17:39.465Z,18.60
2018-09-09T15:20:07.880Z,18.50
2018-09-09T15:22:37.117Z,18.70
2018-09-09T15:25:05.448Z,18.70
2018-09-09T15:27:33.829Z,18.40
2018-09-09T15:30:02.288Z,18.20
2018-09-09T15:32:30.637Z,17.90
2018-09-09T15:34:59.012Z,18.20
2018-09-09T15:37:27.331Z,18.00
2018-09-09T15:39:55.752Z,17.70
2018-09-09T15:42:24.091Z,18.00
2018-09-09T15:44:52.423Z,18.30
2018-09-09T15:47:20.808Z,18.60
2018-09-09T15:49:49.105Z,18.80
2018-09-09T15:52:17.607Z,18.90
2018-09-09T15:54:46.007Z,18.80
2018-09-09T15:57:14.367Z,19.20
2018-09-09T15:59:42.729Z,19.40
2018-09-09T16:02:11.053Z,19.70
2018-09-09T16:04:39.428Z,19.50
2018-09-09T16:07:07.784Z,19.60
2018-09-09T16:09:36.133Z,19.50
2018-09-09T16:12:04.499Z,18.90
2018-09-09T16:14:32.949Z,19.10
2018-09-09T16:17:01.285Z,18.90
2018-09-09T16:19:29.750Z,19.50
2018-09-09T16:21:58.091Z,19.70
2018-09-09T16:24:26.496Z,19.70
2018-09-09T16:26:54.836Z,19.70
2018-09-09T16:29:23.217Z,19.60
2018-09-09T16:31:51.599Z,19.70
2018-09-09T16:34:19.949Z,19.50
2018-09-09T16:36:48.308Z,19.40
2018-09-09T16:39:16.702Z,19.60
2018-09-09T16:41:45.045Z,20.70
2018-09-09T16:44:13.429Z,20.60
2018-09-09T16:46:41.938Z,21.40
2018-09-09T16:49:10.341Z,21.60
2018-09-09T16:51:38.716Z,21.50
2018-09-09T16:54:07.142Z,21.50
2018-09-09T16:56:35.491Z,21.50
2018-09-09T16:59:03.839Z,22.20
2018-09-09T17:01:32.373Z,22.90
2018-09-09T17:04:00.857Z,23.20
2018-09-09T17:06:29.204Z,22.90
2018-09-09T17:08:57.559Z,22.70
2018-09-09T17:11:25.931Z,23.30
2018-09-09T17:13:54.310Z,24.10
2018-09-09T17:16:23.101Z,24.50
2018-09-09T17:18:51.463Z,25.20
2018-09-09T17:21:19.895Z,25.10
2018-09-09T17:23:48.508Z,25.80
2018-09-09T17:26:16.993Z,25.70
2018-09-09T17:28:45.412Z,25.80
2018-09-09T17:31:14.444Z,26.10
2018-09-09T17:33:43.644Z,26.30
2018-09-09T17:36:12.035Z,26.50
2018-09-09T17:38:41.099Z,26.70
2018-09-09T17:41:09.477Z,27.10
2018-09-09T17:43:38.427Z,27.10
2018-09-09T17:46:07.707Z,27.20
2018-09-09T17:48:36.289Z,27.20
2018-09-09T17:51:04.639Z,27.20
2018-09-09T17:53:33.297Z,27.20
2018-09-09T17:56:01.659Z,27.10
2018-09-09T17:58:30.005Z,27.30
2018-09-09T18:00:58.435Z,27.90
2018-09-09T18:03:26.813Z,27.40
2018-09-09T18:05:55.246Z,27.50
2018-09-09T18:08:23.655Z,27.60
2018-09-09T18:10:52.040Z,27.80
2018-09-09T18:13:20.421Z,28.10
2018-09-09T18:15:48.868Z,28.40
2018-09-09T18:18:17.331Z,28.60
2018-09-09T18:20:46.462Z,28.70
2018-09-09T18:23:14.815Z,29.00
2018-09-09T18:25:43.160Z,29.30
2018-09-09T18:28:11.637Z,29.90
2018-09-09T18:30:40.018Z,31.10
2018-09-09T18:33:08.436Z,31.50
2018-09-09T18:35:36.827Z,32.10
2018-09-09T18:38:05.565Z,32.20
2018-09-09T18:40:34.001Z,31.80
2018-09-09T18:43:02.395Z,31.80
2018-09-09T18:45:30.790Z,31.80
2018-09-09T18:48:00.273Z,32.00
2018-09-09T18:50:28.755Z,32.10
2018-09-09T18:52:57.229Z,32.50
2018-09-09T18:55:25.620Z,32.90
2018-09-09T18:57:53.996Z,33.60
2018-09-09T19:00:22.999Z,34.20
2018-09-09T19:02:51.359Z,35.20
2018-09-09T19:05:19.789Z,35.00
2018-09-09T19:07:48.164Z,35.20
2018-09-09T19:10:16.659Z,36.00
2018-09-09T19:12:45.123Z,36.70
2018-09-09T19:15:14.355Z,37.60
2018-09-09T19:17:42.744Z,36.40
2018-09-09T19:20:11.264Z,36.60
2018-09-09T19:22:39.702Z,36.70
2018-09-09T19:25:08.105Z,37.00
2018-09-09T19:27:36.463Z,37.20
2018-09-09T19:30:05.011Z,37.50
2018-09-09T19:32:33.549Z,37.70
2018-09-09T19:35:02.648Z,37.80
2018-09-09T19:37:31.055Z,38.10
2018-09-09T19:39:59.477Z,38.50
2018-09-09T19:42:27.876Z,38.50
2018-09-09T19:44:56.303Z,38.90
2018-09-09T19:47:24.718Z,38.80
2018-09-09T19:49:53.061Z,38.70
2018-09-09T19:52:21.459Z,38.60
2018-09-09T19:54:49.886Z,38.60
2018-09-09T19:57:18.579Z,38.50
2018-09-09T19:59:47.777Z,38.60
2018-09-09T20:02:16.137Z,38.70
2018-09-09T20:04:44.863Z,38.60
2018-09-09T20:07:13.233Z,39.10
2018-09-09T20:09:42.496Z,39.40
2018-09-09T20:12:10.913Z,39.70
2018-09-09T20:14:39.280Z,40.10
2018-09-09T20:17:08.148Z,40.00
2018-09-09T20:19:36.532Z,40.20
2018-09-09T20:22:06.579Z,40.40
2018-09-09T20:24:34.950Z,40.50
2018-09-09T20:27:03.354Z,40.70
2018-09-09T20:29:31.692Z,40.90
2018-09-09T20:32:00.071Z,41.00
2018-09-09T20:34:28.435Z,41.30
2018-09-09T20:36:56.791Z,41.70
2018-09-09T20:39:25.165Z,41.80
2018-09-09T20:41:53.557Z,42.00
2018-09-09T20:44:21.941Z,42.30
2018-09-09T20:46:50.278Z,42.70
2018-09-09T20:49:18.665Z,42.80
2018-09-09T20:51:47.173Z,43.10
2018-09-09T20:54:15.513Z,42.90
2018-09-09T20:56:43.997Z,43.10
2018-09-09T20:59:12.412Z,43.50
2018-09-09T21:01:40.767Z,43.70
2018-09-09T21:04:09.104Z,43.80
2018-09-09T21:06:38.218Z,43.70
2018-09-09T21:09:08.408Z,43.80
2018-09-09T21:11:36.740Z,43.80
2018-09-09T21:14:05.163Z,44.00
2018-09-09T21:16:33.545Z,44.30
2018-09-09T21:19:01.889Z,44.50
2018-09-09T21:21:30.379Z,44.70
2018-09-09T21:23:59.802Z,44.90
2018-09-09T21:26:28.710Z,45.00
2018-09-09T21:28:57.076Z,45.20
2018-09-09T21:31:25.504Z,45.20
2018-09-09T21:33:53.847Z,45.30
2018-09-09T21:36:22.157Z,45.60
2018-09-09T21:38:50.548Z,45.70
2018-09-09T21:41:18.886Z,45.90
2018-09-09T21:43:47.267Z,45.90
2018-09-09T21:46:16.253Z,46.00
2018-09-09T21:48:44.619Z,46.40
2018-09-09T21:51:13.079Z,46.60
2018-09-09T21:53:41.476Z,46.70
2018-09-09T21:56:09.891Z,46.50
2018-09-09T21:58:38.230Z,46.60
2018-09-09T22:01:12.078Z,46.40
2018-09-09T22:03:40.560Z,46.50
2018-09-09T22:06:08.887Z,46.70
2018-09-09T22:08:37.979Z,47.00
2018-09-09T22:11:06.379Z,47.10
2018-09-09T22:13:34.759Z,47.30
2018-09-09T22:16:03.117Z,47.60
2018-09-09T22:18:31.483Z,47.60
2018-09-09T22:20:59.827Z,47.80
2018-09-09T22:23:28.289Z,47.90
2018-09-09T22:25:56.766Z,47.90
2018-09-09T22:28:25.840Z,47.90
2018-09-09T22:30:54.184Z,48.00
2018-09-09T22:33:22.546Z,48.00
2018-09-09T22:35:50.959Z,48.20
2018-09-09T22:38:19.482Z,48.20
2018-09-09T22:40:47.806Z,48.50
2018-09-09T22:43:16.164Z,48.70
2018-09-09T22:45:47.332Z,49.00
2018-09-09T22:48:15.792Z,49.10
2018-09-09T22:50:44.132Z,49.20
2018-09-09T22:53:12.462Z,49.30
2018-09-09T22:55:40.798Z,49.30
2018-09-09T22:58:09.156Z,49.60
2018-09-09T23:00:37.488Z,49.70
2018-09-09T23:03:06.098Z,49.90
2018-09-09T23:05:34.526Z,50.20
2018-09-09T23:08:02.784Z,50.00
2018-09-09T23:10:31.114Z,50.00
2018-09-09T23:12:59.593Z,50.00
2018-09-09T23:15:28.465Z,50.30
2018-09-09T23:17:56.810Z,51.10
2018-09-09T23:20:25.264Z,50.70
2018-09-09T23:22:53.982Z,50.70
2018-09-09T23:25:23.267Z,51.10
2018-09-09T23:27:52.069Z,51.40
2018-09-09T23:30:21.014Z,51.60
2018-09-09T23:32:49.490Z,51.60
2018-09-09T23:35:17.828Z,51.60
2018-09-09T23:37:53.457Z,51.70
2018-09-09T23:40:21.800Z,51.80
2018-09-09T23:42:50.132Z,52.00
2018-09-09T23:45:18.480Z,52.20
2018-09-09T23:47:46.796Z,52.90
2018-09-09T23:50:15.145Z,52.40
2018-09-09T23:52:43.534Z,52.70
2018-09-09T23:55:11.888Z,52.80
2018-09-09T23:57:40.332Z,52.90
